sensor_id;sensor_type;location;lat;lon;timestamp;P1;durP1;ratioP1;P2;durP2;ratioP2
2213;SDS011;1113;42.018;23.986;2023-12-20T00:02:19;134.00;;;76.15;;
2213;SDS011;1113;42.018;23.986;2023-12-20T00:04:46;142.13;;;78.80;;
2213;SDS011;1113;42.018;23.986;2023-12-20T00:07:14;149.43;;;77.90;;
2213;SDS011;1113;42.018;23.986;2023-12-20T00:09:42;168.63;;;82.78;;
2213;SDS011;1113;42.018;23.986;2023-12-20T00:12:10;146.45;;;79.55;;
2213;SDS011;1113;42.018;23.986;2023-12-20T00:14:37;176.90;;;82.63;;
2213;SDS011;1113;42.018;23.986;2023-12-20T00:17:04;133.35;;;74.43;;
2213;SDS011;1113;42.018;23.986;2023-12-20T00:19:31;153.20;;;79.85;;
2213;SDS011;1113;42.018;23.986;2023-12-20T00:21:59;146.00;;;78.90;;
2213;SDS011;1113;42.018;23.986;2023-12-20T00:24:26;164.68;;;86.70;;
2213;SDS011;1113;42.018;23.986;2023-12-20T00:26:55;182.63;;;86.68;;
2213;SDS011;1113;42.018;23.986;2023-12-20T00:29:22;163.43;;;85.32;;
2213;SDS011;1113;42.018;23.986;2023-12-20T00:31:49;154.50;;;83.05;;
2213;SDS011;1113;42.018;23.986;2023-12-20T00:34:17;183.30;;;87.63;;
2213;SDS011;1113;42.018;23.986;2023-12-20T00:36:44;223.20;;;93.28;;
2213;SDS011;1113;42.018;23.986;2023-12-20T00:39:11;156.85;;;80.63;;
2213;SDS011;1113;42.018;23.986;2023-12-20T00:41:39;198.43;;;86.43;;
2213;SDS011;1113;42.018;23.986;2023-12-20T00:44:07;192.45;;;89.60;;
2213;SDS011;1113;42.018;23.986;2023-12-20T00:46:35;212.07;;;88.65;;
2213;SDS011;1113;42.018;23.986;2023-12-20T00:49:02;196.13;;;87.97;;
2213;SDS011;1113;42.018;23.986;2023-12-20T00:51:29;245.48;;;90.72;;
2213;SDS011;1113;42.018;23.986;2023-12-20T00:53:56;247.90;;;93.82;;
2213;SDS011;1113;42.018;23.986;2023-12-20T00:56:23;175.95;;;83.82;;
2213;SDS011;1113;42.018;23.986;2023-12-20T00:58:51;160.02;;;81.72;;
2213;SDS011;1113;42.018;23.986;2023-12-20T01:01:20;149.45;;;74.05;;
2213;SDS011;1113;42.018;23.986;2023-12-20T01:03:48;136.70;;;70.53;;
2213;SDS011;1113;42.018;23.986;2023-12-20T01:06:16;132.65;;;73.18;;
2213;SDS011;1113;42.018;23.986;2023-12-20T01:08:44;195.25;;;80.85;;
2213;SDS011;1113;42.018;23.986;2023-12-20T01:11:11;156.40;;;78.00;;
2213;SDS011;1113;42.018;23.986;2023-12-20T01:13:39;135.68;;;74.82;;
2213;SDS011;1113;42.018;23.986;2023-12-20T01:16:06;156.00;;;79.10;;
2213;SDS011;1113;42.018;23.986;2023-12-20T01:18:34;181.70;;;76.07;;
2213;SDS011;1113;42.018;23.986;2023-12-20T01:21:02;121.25;;;70.25;;
2213;SDS011;1113;42.018;23.986;2023-12-20T01:23:29;129.73;;;68.22;;
2213;SDS011;1113;42.018;23.986;2023-12-20T01:25:56;122.15;;;68.68;;
2213;SDS011;1113;42.018;23.986;2023-12-20T01:28:24;132.38;;;61.67;;
2213;SDS011;1113;42.018;23.986;2023-12-20T01:30:51;102.90;;;61.13;;
2213;SDS011;1113;42.018;23.986;2023-12-20T01:33:18;99.65;;;57.58;;
2213;SDS011;1113;42.018;23.986;2023-12-20T01:35:47;120.38;;;59.10;;
2213;SDS011;1113;42.018;23.986;2023-12-20T01:38:14;102.20;;;57.20;;
2213;SDS011;1113;42.018;23.986;2023-12-20T01:40:43;107.32;;;57.00;;
2213;SDS011;1113;42.018;23.986;2023-12-20T01:43:11;103.72;;;56.20;;
2213;SDS011;1113;42.018;23.986;2023-12-20T01:45:38;96.32;;;55.88;;
2213;SDS011;1113;42.018;23.986;2023-12-20T01:48:06;94.90;;;55.33;;
2213;SDS011;1113;42.018;23.986;2023-12-20T01:50:35;132.43;;;57.97;;
2213;SDS011;1113;42.018;23.986;2023-12-20T01:53:05;111.22;;;54.03;;
2213;SDS011;1113;42.018;23.986;2023-12-20T01:55:36;104.60;;;54.10;;
2213;SDS011;1113;42.018;23.986;2023-12-20T01:58:05;126.43;;;59.58;;
2213;SDS011;1113;42.018;23.986;2023-12-20T02:00:33;122.47;;;60.95;;
2213;SDS011;1113;42.018;23.986;2023-12-20T02:03:02;174.48;;;62.28;;
2213;SDS011;1113;42.018;23.986;2023-12-20T02:05:30;131.38;;;62.60;;
2213;SDS011;1113;42.018;23.986;2023-12-20T02:07:59;101.55;;;53.30;;
2213;SDS011;1113;42.018;23.986;2023-12-20T02:10:27;98.40;;;55.53;;
2213;SDS011;1113;42.018;23.986;2023-12-20T02:12:55;94.07;;;48.08;;
2213;SDS011;1113;42.018;23.986;2023-12-20T02:15:22;98.35;;;51.25;;
2213;SDS011;1113;42.018;23.986;2023-12-20T02:17:50;114.25;;;53.08;;
2213;SDS011;1113;42.018;23.986;2023-12-20T02:20:17;97.80;;;50.85;;
2213;SDS011;1113;42.018;23.986;2023-12-20T02:22:46;92.28;;;50.05;;
2213;SDS011;1113;42.018;23.986;2023-12-20T02:25:13;90.18;;;51.67;;
2213;SDS011;1113;42.018;23.986;2023-12-20T02:27:41;80.75;;;45.72;;
2213;SDS011;1113;42.018;23.986;2023-12-20T02:30:09;79.70;;;44.88;;
2213;SDS011;1113;42.018;23.986;2023-12-20T02:32:38;75.10;;;45.15;;
2213;SDS011;1113;42.018;23.986;2023-12-20T02:35:05;98.22;;;50.40;;
2213;SDS011;1113;42.018;23.986;2023-12-20T02:37:33;87.20;;;48.15;;
2213;SDS011;1113;42.018;23.986;2023-12-20T02:40:02;101.72;;;52.40;;
2213;SDS011;1113;42.018;23.986;2023-12-20T02:42:30;86.40;;;51.17;;
2213;SDS011;1113;42.018;23.986;2023-12-20T02:44:57;105.32;;;53.53;;
2213;SDS011;1113;42.018;23.986;2023-12-20T02:47:24;99.60;;;54.40;;
2213;SDS011;1113;42.018;23.986;2023-12-20T02:49:51;99.55;;;53.75;;
2213;SDS011;1113;42.018;23.986;2023-12-20T02:52:19;104.95;;;52.30;;
2213;SDS011;1113;42.018;23.986;2023-12-20T02:54:46;111.72;;;60.72;;
2213;SDS011;1113;42.018;23.986;2023-12-20T02:57:15;108.28;;;61.15;;
2213;SDS011;1113;42.018;23.986;2023-12-20T02:59:42;117.68;;;59.53;;
2213;SDS011;1113;42.018;23.986;2023-12-20T03:02:10;102.95;;;57.72;;
2213;SDS011;1113;42.018;23.986;2023-12-20T03:04:37;126.90;;;64.70;;
2213;SDS011;1113;42.018;23.986;2023-12-20T03:07:04;117.35;;;64.72;;
2213;SDS011;1113;42.018;23.986;2023-12-20T03:09:31;121.63;;;62.47;;
2213;SDS011;1113;42.018;23.986;2023-12-20T03:11:58;99.13;;;61.45;;
2213;SDS011;1113;42.018;23.986;2023-12-20T03:14:27;123.15;;;62.15;;
2213;SDS011;1113;42.018;23.986;2023-12-20T03:16:54;105.03;;;56.90;;
2213;SDS011;1113;42.018;23.986;2023-12-20T03:19:21;113.05;;;62.10;;
2213;SDS011;1113;42.018;23.986;2023-12-20T03:21:49;98.85;;;56.65;;
2213;SDS011;1113;42.018;23.986;2023-12-20T03:24:16;123.25;;;61.83;;
2213;SDS011;1113;42.018;23.986;2023-12-20T03:26:43;115.45;;;60.42;;
2213;SDS011;1113;42.018;23.986;2023-12-20T03:29:11;103.22;;;59.53;;
2213;SDS011;1113;42.018;23.986;2023-12-20T03:31:40;105.68;;;58.45;;
2213;SDS011;1113;42.018;23.986;2023-12-20T03:34:07;79.72;;;44.58;;
2213;SDS011;1113;42.018;23.986;2023-12-20T03:36:34;85.60;;;46.63;;
2213;SDS011;1113;42.018;23.986;2023-12-20T03:39:01;81.88;;;44.28;;
2213;SDS011;1113;42.018;23.986;2023-12-20T03:41:28;77.35;;;46.47;;
2213;SDS011;1113;42.018;23.986;2023-12-20T03:43:56;82.38;;;46.35;;
2213;SDS011;1113;42.018;23.986;2023-12-20T03:46:23;84.55;;;45.83;;
2213;SDS011;1113;42.018;23.986;2023-12-20T03:48:51;83.25;;;46.90;;
2213;SDS011;1113;42.018;23.986;2023-12-20T03:51:19;99.72;;;52.78;;
2213;SDS011;1113;42.018;23.986;2023-12-20T03:53:46;97.43;;;55.35;;
2213;SDS011;1113;42.018;23.986;2023-12-20T03:56:13;108.22;;;54.00;;
2213;SDS011;1113;42.018;23.986;2023-12-20T03:58:41;95.07;;;52.83;;
2213;SDS011;1113;42.018;23.986;2023-12-20T04:01:09;90.38;;;53.45;;
2213;SDS011;1113;42.018;23.986;2023-12-20T04:03:37;106.15;;;56.67;;
2213;SDS011;1113;42.018;23.986;2023-12-20T04:06:07;97.30;;;53.08;;
2213;SDS011;1113;42.018;23.986;2023-12-20T04:08:35;95.07;;;53.70;;
2213;SDS011;1113;42.018;23.986;2023-12-20T04:11:02;100.72;;;54.95;;
2213;SDS011;1113;42.018;23.986;2023-12-20T04:13:29;99.22;;;54.53;;
2213;SDS011;1113;42.018;23.986;2023-12-20T04:15:56;97.90;;;52.03;;
2213;SDS011;1113;42.018;23.986;2023-12-20T04:18:24;94.63;;;51.25;;
2213;SDS011;1113;42.018;23.986;2023-12-20T04:20:51;88.55;;;51.83;;
2213;SDS011;1113;42.018;23.986;2023-12-20T04:23:20;89.40;;;50.55;;
2213;SDS011;1113;42.018;23.986;2023-12-20T04:25:47;75.65;;;45.25;;
2213;SDS011;1113;42.018;23.986;2023-12-20T04:28:14;84.47;;;45.85;;
2213;SDS011;1113;42.018;23.986;2023-12-20T04:30:41;63.83;;;43.17;;
2213;SDS011;1113;42.018;23.986;2023-12-20T04:33:09;70.63;;;45.50;;
2213;SDS011;1113;42.018;23.986;2023-12-20T04:35:36;65.43;;;42.25;;
2213;SDS011;1113;42.018;23.986;2023-12-20T04:38:03;81.22;;;45.13;;
2213;SDS011;1113;42.018;23.986;2023-12-20T04:40:32;69.68;;;42.38;;
2213;SDS011;1113;42.018;23.986;2023-12-20T04:42:59;79.70;;;46.00;;
2213;SDS011;1113;42.018;23.986;2023-12-20T04:45:26;79.68;;;48.72;;
2213;SDS011;1113;42.018;23.986;2023-12-20T04:47:54;84.75;;;49.58;;
2213;SDS011;1113;42.018;23.986;2023-12-20T04:50:22;81.30;;;49.40;;
2213;SDS011;1113;42.018;23.986;2023-12-20T04:52:49;86.20;;;51.15;;
2213;SDS011;1113;42.018;23.986;2023-12-20T04:55:16;90.68;;;52.30;;
2213;SDS011;1113;42.018;23.986;2023-12-20T04:57:45;90.25;;;52.08;;
2213;SDS011;1113;42.018;23.986;2023-12-20T05:00:13;85.63;;;52.67;;
2213;SDS011;1113;42.018;23.986;2023-12-20T05:02:41;90.30;;;53.85;;
2213;SDS011;1113;42.018;23.986;2023-12-20T05:05:08;91.05;;;57.33;;
2213;SDS011;1113;42.018;23.986;2023-12-20T05:07:35;87.00;;;52.22;;
2213;SDS011;1113;42.018;23.986;2023-12-20T05:10:03;94.75;;;52.85;;
2213;SDS011;1113;42.018;23.986;2023-12-20T05:12:31;95.57;;;52.90;;
2213;SDS011;1113;42.018;23.986;2023-12-20T05:14:59;97.05;;;55.03;;
2213;SDS011;1113;42.018;23.986;2023-12-20T05:17:27;95.97;;;53.00;;
2213;SDS011;1113;42.018;23.986;2023-12-20T05:19:54;102.32;;;55.22;;
2213;SDS011;1113;42.018;23.986;2023-12-20T05:22:21;100.50;;;56.05;;
2213;SDS011;1113;42.018;23.986;2023-12-20T05:24:49;108.70;;;59.85;;
2213;SDS011;1113;42.018;23.986;2023-12-20T05:27:16;120.25;;;64.90;;
2213;SDS011;1113;42.018;23.986;2023-12-20T05:29:43;124.72;;;63.92;;
2213;SDS011;1113;42.018;23.986;2023-12-20T05:32:12;114.47;;;60.80;;
2213;SDS011;1113;42.018;23.986;2023-12-20T05:34:39;107.78;;;60.13;;
2213;SDS011;1113;42.018;23.986;2023-12-20T05:37:07;101.28;;;59.03;;
2213;SDS011;1113;42.018;23.986;2023-12-20T05:39:34;104.70;;;56.80;;
2213;SDS011;1113;42.018;23.986;2023-12-20T05:42:01;99.90;;;61.22;;
2213;SDS011;1113;42.018;23.986;2023-12-20T05:44:28;103.07;;;59.05;;
2213;SDS011;1113;42.018;23.986;2023-12-20T05:46:56;101.38;;;58.60;;
2213;SDS011;1113;42.018;23.986;2023-12-20T05:49:25;113.65;;;64.85;;
2213;SDS011;1113;42.018;23.986;2023-12-20T05:51:52;99.72;;;58.03;;
2213;SDS011;1113;42.018;23.986;2023-12-20T05:54:19;111.18;;;63.58;;
2213;SDS011;1113;42.018;23.986;2023-12-20T05:56:47;185.50;;;93.07;;
2213;SDS011;1113;42.018;23.986;2023-12-20T05:59:14;186.93;;;91.57;;
2213;SDS011;1113;42.018;23.986;2023-12-20T06:01:42;163.10;;;80.32;;
2213;SDS011;1113;42.018;23.986;2023-12-20T06:04:09;162.10;;;80.80;;
2213;SDS011;1113;42.018;23.986;2023-12-20T06:06:42;164.07;;;90.40;;
2213;SDS011;1113;42.018;23.986;2023-12-20T06:09:09;162.90;;;86.72;;
2213;SDS011;1113;42.018;23.986;2023-12-20T06:11:37;151.43;;;82.90;;
2213;SDS011;1113;42.018;23.986;2023-12-20T06:14:04;188.40;;;94.65;;
2213;SDS011;1113;42.018;23.986;2023-12-20T06:16:31;141.32;;;79.10;;
2213;SDS011;1113;42.018;23.986;2023-12-20T06:18:59;145.43;;;78.18;;
2213;SDS011;1113;42.018;23.986;2023-12-20T06:21:26;151.40;;;82.47;;
2213;SDS011;1113;42.018;23.986;2023-12-20T06:23:54;140.07;;;82.45;;
2213;SDS011;1113;42.018;23.986;2023-12-20T06:26:22;147.00;;;78.20;;
2213;SDS011;1113;42.018;23.986;2023-12-20T06:28:49;144.10;;;81.03;;
2213;SDS011;1113;42.018;23.986;2023-12-20T06:31:17;157.18;;;86.65;;
2213;SDS011;1113;42.018;23.986;2023-12-20T06:33:44;172.63;;;97.90;;
2213;SDS011;1113;42.018;23.986;2023-12-20T06:36:11;159.43;;;89.28;;
2213;SDS011;1113;42.018;23.986;2023-12-20T06:38:39;160.38;;;89.00;;
2213;SDS011;1113;42.018;23.986;2023-12-20T06:41:12;153.73;;;85.70;;
2213;SDS011;1113;42.018;23.986;2023-12-20T06:43:40;161.20;;;90.65;;
2213;SDS011;1113;42.018;23.986;2023-12-20T06:46:08;150.57;;;87.97;;
2213;SDS011;1113;42.018;23.986;2023-12-20T06:48:36;179.18;;;98.57;;
2213;SDS011;1113;42.018;23.986;2023-12-20T06:51:03;185.82;;;105.32;;
2213;SDS011;1113;42.018;23.986;2023-12-20T06:53:31;206.43;;;117.60;;
2213;SDS011;1113;42.018;23.986;2023-12-20T06:55:58;198.38;;;114.07;;
2213;SDS011;1113;42.018;23.986;2023-12-20T06:58:27;218.68;;;124.07;;
2213;SDS011;1113;42.018;23.986;2023-12-20T07:00:54;232.77;;;134.43;;
2213;SDS011;1113;42.018;23.986;2023-12-20T07:03:22;211.10;;;124.68;;
2213;SDS011;1113;42.018;23.986;2023-12-20T07:05:49;209.20;;;125.05;;
2213;SDS011;1113;42.018;23.986;2023-12-20T07:08:16;183.98;;;110.78;;
2213;SDS011;1113;42.018;23.986;2023-12-20T07:10:44;179.73;;;112.75;;
2213;SDS011;1113;42.018;23.986;2023-12-20T07:13:12;187.10;;;106.55;;
2213;SDS011;1113;42.018;23.986;2023-12-20T07:15:41;177.48;;;108.22;;
2213;SDS011;1113;42.018;23.986;2023-12-20T07:18:08;148.63;;;87.45;;
2213;SDS011;1113;42.018;23.986;2023-12-20T07:20:35;175.68;;;99.13;;
2213;SDS011;1113;42.018;23.986;2023-12-20T07:23:03;156.02;;;93.07;;
2213;SDS011;1113;42.018;23.986;2023-12-20T07:25:30;131.13;;;84.63;;
2213;SDS011;1113;42.018;23.986;2023-12-20T07:27:58;148.43;;;83.85;;
2213;SDS011;1113;42.018;23.986;2023-12-20T07:30:26;153.48;;;85.40;;
2213;SDS011;1113;42.018;23.986;2023-12-20T07:32:55;178.85;;;103.47;;
2213;SDS011;1113;42.018;23.986;2023-12-20T07:35:23;194.65;;;111.88;;
2213;SDS011;1113;42.018;23.986;2023-12-20T07:37:50;260.23;;;134.25;;
2213;SDS011;1113;42.018;23.986;2023-12-20T07:40:18;265.70;;;140.55;;
2213;SDS011;1113;42.018;23.986;2023-12-20T07:42:45;278.67;;;151.20;;
2213;SDS011;1113;42.018;23.986;2023-12-20T07:45:12;289.15;;;146.32;;
2213;SDS011;1113;42.018;23.986;2023-12-20T07:47:40;250.43;;;144.25;;
2213;SDS011;1113;42.018;23.986;2023-12-20T07:50:09;260.58;;;143.80;;
2213;SDS011;1113;42.018;23.986;2023-12-20T07:52:36;277.83;;;158.65;;
2213;SDS011;1113;42.018;23.986;2023-12-20T07:55:04;280.42;;;151.13;;
2213;SDS011;1113;42.018;23.986;2023-12-20T07:57:32;289.35;;;160.23;;
2213;SDS011;1113;42.018;23.986;2023-12-20T08:00:03;285.67;;;158.48;;
2213;SDS011;1113;42.018;23.986;2023-12-20T08:02:31;272.48;;;158.13;;
2213;SDS011;1113;42.018;23.986;2023-12-20T08:04:59;287.88;;;162.93;;
2213;SDS011;1113;42.018;23.986;2023-12-20T08:07:27;276.60;;;158.63;;
2213;SDS011;1113;42.018;23.986;2023-12-20T08:09:55;286.10;;;169.55;;
2213;SDS011;1113;42.018;23.986;2023-12-20T08:12:22;302.35;;;174.43;;
2213;SDS011;1113;42.018;23.986;2023-12-20T08:14:52;307.10;;;171.45;;
2213;SDS011;1113;42.018;23.986;2023-12-20T08:17:20;310.45;;;166.57;;
2213;SDS011;1113;42.018;23.986;2023-12-20T08:19:48;310.85;;;173.60;;
2213;SDS011;1113;42.018;23.986;2023-12-20T08:22:15;333.52;;;194.13;;
2213;SDS011;1113;42.018;23.986;2023-12-20T08:24:44;347.08;;;208.70;;
2213;SDS011;1113;42.018;23.986;2023-12-20T08:27:12;332.42;;;195.73;;
2213;SDS011;1113;42.018;23.986;2023-12-20T08:29:39;357.30;;;214.25;;
2213;SDS011;1113;42.018;23.986;2023-12-20T08:32:07;372.60;;;216.90;;
2213;SDS011;1113;42.018;23.986;2023-12-20T08:34:34;393.77;;;231.65;;
2213;SDS011;1113;42.018;23.986;2023-12-20T08:37:02;390.75;;;229.75;;
2213;SDS011;1113;42.018;23.986;2023-12-20T08:39:29;393.52;;;237.88;;
2213;SDS011;1113;42.018;23.986;2023-12-20T08:42:00;379.05;;;233.90;;
2213;SDS011;1113;42.018;23.986;2023-12-20T08:44:27;410.23;;;254.15;;
2213;SDS011;1113;42.018;23.986;2023-12-20T08:46:54;401.35;;;245.30;;
2213;SDS011;1113;42.018;23.986;2023-12-20T08:49:22;376.33;;;234.23;;
2213;SDS011;1113;42.018;23.986;2023-12-20T08:51:50;413.55;;;264.30;;
2213;SDS011;1113;42.018;23.986;2023-12-20T08:54:18;433.45;;;271.00;;
2213;SDS011;1113;42.018;23.986;2023-12-20T08:56:45;448.13;;;282.17;;
2213;SDS011;1113;42.018;23.986;2023-12-20T08:59:14;461.45;;;295.38;;
2213;SDS011;1113;42.018;23.986;2023-12-20T09:01:43;478.83;;;299.27;;
2213;SDS011;1113;42.018;23.986;2023-12-20T09:04:11;470.13;;;303.23;;
2213;SDS011;1113;42.018;23.986;2023-12-20T09:06:39;462.42;;;297.63;;
2213;SDS011;1113;42.018;23.986;2023-12-20T09:09:06;443.65;;;287.08;;
2213;SDS011;1113;42.018;23.986;2023-12-20T09:11:35;422.65;;;284.10;;
2213;SDS011;1113;42.018;23.986;2023-12-20T09:14:02;399.73;;;255.13;;
2213;SDS011;1113;42.018;23.986;2023-12-20T09:16:31;397.52;;;272.10;;
2213;SDS011;1113;42.018;23.986;2023-12-20T09:18:59;411.02;;;280.52;;
2213;SDS011;1113;42.018;23.986;2023-12-20T09:21:26;377.73;;;265.83;;
2213;SDS011;1113;42.018;23.986;2023-12-20T09:23:54;357.77;;;255.38;;
2213;SDS011;1113;42.018;23.986;2023-12-20T09:26:21;358.05;;;254.57;;
2213;SDS011;1113;42.018;23.986;2023-12-20T09:28:48;371.97;;;264.63;;
2213;SDS011;1113;42.018;23.986;2023-12-20T09:31:16;339.77;;;254.70;;
2213;SDS011;1113;42.018;23.986;2023-12-20T09:33:44;323.70;;;245.45;;
2213;SDS011;1113;42.018;23.986;2023-12-20T09:36:12;330.53;;;238.93;;
2213;SDS011;1113;42.018;23.986;2023-12-20T09:38:40;366.90;;;263.40;;
2213;SDS011;1113;42.018;23.986;2023-12-20T09:41:07;344.00;;;245.40;;
2213;SDS011;1113;42.018;23.986;2023-12-20T09:43:35;293.77;;;196.97;;
2213;SDS011;1113;42.018;23.986;2023-12-20T09:46:05;239.00;;;163.23;;
2213;SDS011;1113;42.018;23.986;2023-12-20T09:48:33;232.17;;;159.20;;
2213;SDS011;1113;42.018;23.986;2023-12-20T09:51:04;238.60;;;159.87;;
2213;SDS011;1113;42.018;23.986;2023-12-20T09:53:32;241.13;;;159.03;;
2213;SDS011;1113;42.018;23.986;2023-12-20T09:56:03;218.87;;;152.13;;
2213;SDS011;1113;42.018;23.986;2023-12-20T09:58:35;221.10;;;143.57;;
2213;SDS011;1113;42.018;23.986;2023-12-20T10:01:04;198.10;;;136.70;;
2213;SDS011;1113;42.018;23.986;2023-12-20T10:03:33;196.43;;;138.73;;
2213;SDS011;1113;42.018;23.986;2023-12-20T10:06:01;201.17;;;136.53;;
2213;SDS011;1113;42.018;23.986;2023-12-20T10:08:30;199.93;;;138.17;;
2213;SDS011;1113;42.018;23.986;2023-12-20T10:10:57;202.07;;;141.13;;
2213;SDS011;1113;42.018;23.986;2023-12-20T10:13:27;201.00;;;142.77;;
2213;SDS011;1113;42.018;23.986;2023-12-20T10:15:55;220.77;;;154.17;;
2213;SDS011;1113;42.018;23.986;2023-12-20T10:18:23;229.40;;;160.30;;
2213;SDS011;1113;42.018;23.986;2023-12-20T10:20:50;209.00;;;152.47;;
2213;SDS011;1113;42.018;23.986;2023-12-20T10:23:17;229.03;;;160.17;;
2213;SDS011;1113;42.018;23.986;2023-12-20T10:25:55;217.40;;;156.53;;
2213;SDS011;1113;42.018;23.986;2023-12-20T10:28:23;212.50;;;148.47;;
2213;SDS011;1113;42.018;23.986;2023-12-20T10:30:53;211.30;;;144.97;;
2213;SDS011;1113;42.018;23.986;2023-12-20T10:33:25;209.73;;;148.27;;
2213;SDS011;1113;42.018;23.986;2023-12-20T10:35:53;228.77;;;163.73;;
2213;SDS011;1113;42.018;23.986;2023-12-20T10:38:22;258.40;;;177.17;;
2213;SDS011;1113;42.018;23.986;2023-12-20T10:40:49;298.00;;;198.50;;
2213;SDS011;1113;42.018;23.986;2023-12-20T10:43:22;304.50;;;195.30;;
2213;SDS011;1113;42.018;23.986;2023-12-20T10:45:51;337.67;;;227.27;;
2213;SDS011;1113;42.018;23.986;2023-12-20T10:48:19;370.73;;;239.27;;
2213;SDS011;1113;42.018;23.986;2023-12-20T10:50:54;421.33;;;276.70;;
2213;SDS011;1113;42.018;23.986;2023-12-20T10:53:22;433.50;;;288.13;;
2213;SDS011;1113;42.018;23.986;2023-12-20T10:55:51;387.23;;;271.80;;
2213;SDS011;1113;42.018;23.986;2023-12-20T10:58:23;367.07;;;259.43;;
2213;SDS011;1113;42.018;23.986;2023-12-20T11:00:53;367.93;;;251.20;;
2213;SDS011;1113;42.018;23.986;2023-12-20T11:03:27;360.63;;;253.63;;
2213;SDS011;1113;42.018;23.986;2023-12-20T11:05:58;360.07;;;259.20;;
2213;SDS011;1113;42.018;23.986;2023-12-20T11:08:32;365.23;;;255.87;;
2213;SDS011;1113;42.018;23.986;2023-12-20T11:11:07;372.93;;;265.80;;
2213;SDS011;1113;42.018;23.986;2023-12-20T11:13:43;377.60;;;267.17;;
2213;SDS011;1113;42.018;23.986;2023-12-20T11:16:14;376.90;;;274.83;;
2213;SDS011;1113;42.018;23.986;2023-12-20T11:18:42;358.17;;;252.63;;
2213;SDS011;1113;42.018;23.986;2023-12-20T11:21:12;337.30;;;248.10;;
2213;SDS011;1113;42.018;23.986;2023-12-20T11:23:40;365.10;;;270.30;;
2213;SDS011;1113;42.018;23.986;2023-12-20T11:26:09;351.17;;;254.37;;
2213;SDS011;1113;42.018;23.986;2023-12-20T11:28:37;349.63;;;251.60;;
2213;SDS011;1113;42.018;23.986;2023-12-20T11:31:05;354.60;;;258.37;;
2213;SDS011;1113;42.018;23.986;2023-12-20T11:33:36;338.40;;;262.67;;
2213;SDS011;1113;42.018;23.986;2023-12-20T11:36:13;333.57;;;252.67;;
2213;SDS011;1113;42.018;23.986;2023-12-20T11:38:51;333.40;;;244.57;;
2213;SDS011;1113;42.018;23.986;2023-12-20T11:41:22;335.10;;;245.77;;
2213;SDS011;1113;42.018;23.986;2023-12-20T11:43:52;369.23;;;266.70;;
2213;SDS011;1113;42.018;23.986;2023-12-20T11:46:22;361.73;;;268.03;;
2213;SDS011;1113;42.018;23.986;2023-12-20T11:48:49;395.93;;;278.97;;
2213;SDS011;1113;42.018;23.986;2023-12-20T11:51:17;396.70;;;284.77;;
2213;SDS011;1113;42.018;23.986;2023-12-20T11:53:50;387.63;;;279.43;;
2213;SDS011;1113;42.018;23.986;2023-12-20T11:56:18;399.03;;;288.93;;
2213;SDS011;1113;42.018;23.986;2023-12-20T11:58:46;400.77;;;290.50;;
2213;SDS011;1113;42.018;23.986;2023-12-20T12:01:14;377.20;;;278.93;;
2213;SDS011;1113;42.018;23.986;2023-12-20T12:03:42;382.70;;;284.23;;
2213;SDS011;1113;42.018;23.986;2023-12-20T12:06:10;361.97;;;252.77;;
2213;SDS011;1113;42.018;23.986;2023-12-20T12:08:38;345.60;;;252.43;;
2213;SDS011;1113;42.018;23.986;2023-12-20T12:11:05;327.93;;;235.30;;
2213;SDS011;1113;42.018;23.986;2023-12-20T12:13:36;378.60;;;238.73;;
2213;SDS011;1113;42.018;23.986;2023-12-20T12:16:04;474.67;;;284.30;;
2213;SDS011;1113;42.018;23.986;2023-12-20T12:18:31;395.20;;;261.53;;
2213;SDS011;1113;42.018;23.986;2023-12-20T12:21:01;356.03;;;250.30;;
2213;SDS011;1113;42.018;23.986;2023-12-20T12:23:29;373.60;;;261.60;;
2213;SDS011;1113;42.018;23.986;2023-12-20T12:25:56;345.40;;;250.50;;
2213;SDS011;1113;42.018;23.986;2023-12-20T12:28:26;378.03;;;266.03;;
2213;SDS011;1113;42.018;23.986;2023-12-20T12:30:57;404.93;;;294.60;;
2213;SDS011;1113;42.018;23.986;2023-12-20T12:33:24;373.03;;;267.00;;
2213;SDS011;1113;42.018;23.986;2023-12-20T12:35:52;334.20;;;237.73;;
2213;SDS011;1113;42.018;23.986;2023-12-20T12:38:21;334.17;;;227.60;;
2213;SDS011;1113;42.018;23.986;2023-12-20T12:40:49;323.27;;;226.97;;
2213;SDS011;1113;42.018;23.986;2023-12-20T12:43:18;319.10;;;226.03;;
2213;SDS011;1113;42.018;23.986;2023-12-20T12:45:45;284.60;;;196.53;;
2213;SDS011;1113;42.018;23.986;2023-12-20T12:48:12;260.40;;;186.73;;
2213;SDS011;1113;42.018;23.986;2023-12-20T12:50:40;261.40;;;182.17;;
2213;SDS011;1113;42.018;23.986;2023-12-20T12:53:08;263.37;;;189.37;;
2213;SDS011;1113;42.018;23.986;2023-12-20T12:55:37;259.77;;;182.67;;
2213;SDS011;1113;42.018;23.986;2023-12-20T12:58:05;257.97;;;182.03;;
2213;SDS011;1113;42.018;23.986;2023-12-20T13:00:32;252.73;;;181.60;;
2213;SDS011;1113;42.018;23.986;2023-12-20T13:02:59;262.90;;;188.47;;
2213;SDS011;1113;42.018;23.986;2023-12-20T13:05:26;258.87;;;176.63;;
2213;SDS011;1113;42.018;23.986;2023-12-20T13:07:54;227.57;;;155.93;;
2213;SDS011;1113;42.018;23.986;2023-12-20T13:10:22;196.53;;;139.60;;
2213;SDS011;1113;42.018;23.986;2023-12-20T13:12:51;221.53;;;151.70;;
2213;SDS011;1113;42.018;23.986;2023-12-20T13:15:19;196.47;;;137.37;;
2213;SDS011;1113;42.018;23.986;2023-12-20T13:17:46;209.80;;;147.17;;
2213;SDS011;1113;42.018;23.986;2023-12-20T13:20:14;200.03;;;144.47;;
2213;SDS011;1113;42.018;23.986;2023-12-20T13:22:42;211.80;;;151.83;;
2213;SDS011;1113;42.018;23.986;2023-12-20T13:25:09;185.87;;;131.17;;
2213;SDS011;1113;42.018;23.986;2023-12-20T13:27:37;193.10;;;138.97;;
2213;SDS011;1113;42.018;23.986;2023-12-20T13:30:06;172.77;;;121.53;;
2213;SDS011;1113;42.018;23.986;2023-12-20T13:32:34;174.23;;;126.13;;
2213;SDS011;1113;42.018;23.986;2023-12-20T13:35:02;189.63;;;127.60;;
2213;SDS011;1113;42.018;23.986;2023-12-20T13:37:30;189.00;;;130.20;;
2213;SDS011;1113;42.018;23.986;2023-12-20T13:39:57;205.23;;;134.93;;
2213;SDS011;1113;42.018;23.986;2023-12-20T13:42:25;211.03;;;143.80;;
2213;SDS011;1113;42.018;23.986;2023-12-20T13:44:52;208.70;;;143.27;;
2213;SDS011;1113;42.018;23.986;2023-12-20T13:47:21;191.53;;;130.70;;
2213;SDS011;1113;42.018;23.986;2023-12-20T13:49:49;221.53;;;151.20;;
2213;SDS011;1113;42.018;23.986;2023-12-20T13:52:16;232.70;;;154.13;;
2213;SDS011;1113;42.018;23.986;2023-12-20T13:54:43;239.37;;;150.70;;
2213;SDS011;1113;42.018;23.986;2023-12-20T13:57:11;234.17;;;150.77;;
2213;SDS011;1113;42.018;23.986;2023-12-20T13:59:38;207.40;;;140.03;;
2213;SDS011;1113;42.018;23.986;2023-12-20T14:02:06;216.87;;;145.10;;
2213;SDS011;1113;42.018;23.986;2023-12-20T14:04:34;235.43;;;152.27;;
2213;SDS011;1113;42.018;23.986;2023-12-20T14:07:04;220.83;;;149.67;;
2213;SDS011;1113;42.018;23.986;2023-12-20T14:09:32;244.90;;;157.57;;
2213;SDS011;1113;42.018;23.986;2023-12-20T14:12:00;228.90;;;151.40;;
2213;SDS011;1113;42.018;23.986;2023-12-20T14:14:27;248.10;;;166.57;;
2213;SDS011;1113;42.018;23.986;2023-12-20T14:16:55;296.87;;;200.60;;
2213;SDS011;1113;42.018;23.986;2023-12-20T14:19:23;376.60;;;239.32;;
2213;SDS011;1113;42.018;23.986;2023-12-20T14:21:51;380.73;;;241.30;;
2213;SDS011;1113;42.018;23.986;2023-12-20T14:24:19;379.60;;;251.82;;